Time;durP1;ratioP1;P1;durP2;ratioP2;P2;SDS_P1;SDS_P2;PMS_P1;PMS_P2;Temp;Humidity;BMP_temperature;BMP_pressure;BME280_temperature;BME280_humidity;BME280_pressure;Samples;Min_cycle;Max_cycle;Signal;HPM_P1;HPM_P2
2021/11/11 00:00:30;;;;;;;33.30;30.42;;;;;;;;;;5093607;28;20198;-87
2021/11/11 00:02:57;;;;;;;244.38;108.18;;;;;;;;;;5097540;28;20569;-88
2021/11/11 00:05:25;;;;;;;283.92;113.57;;;;;;;;;;5097336;28;20197;-88
2021/11/11 00:07:54;;;;;;;389.67;118.03;;;;;;;;;;5097331;28;20212;-87
2021/11/11 00:10:22;;;;;;;409.65;117.18;;;;;;;;;;5097508;28;20646;-87
2021/11/11 00:12:51;;;;;;;409.90;119.00;;;;;;;;;;5097450;28;20200;-87
2021/11/11 00:15:18;;;;;;;410.85;117.50;;;;;;;;;;5097046;28;20352;-88
2021/11/11 00:17:47;;;;;;;375.83;116.25;;;;;;;;;;5097447;28;20214;-87
2021/11/11 00:20:15;;;;;;;391.63;117.05;;;;;;;;;;5097425;28;20284;-87
2021/11/11 00:22:43;;;;;;;399.25;116.90;;;;;;;;;;5097342;28;20296;-86
2021/11/11 00:25:13;;;;;;;399.63;118.65;;;;;;;;;;5097313;28;20193;-87
2021/11/11 00:27:42;;;;;;;369.08;118.85;;;;;;;;;;5097459;28;20242;-87
2021/11/11 00:30:11;;;;;;;397.65;117.85;;;;;;;;;;5096964;28;20221;-87
2021/11/11 00:32:39;;;;;;;407.60;119.75;;;;;;;;;;5097083;28;20190;-87
2021/11/11 00:35:08;;;;;;;423.88;121.10;;;;;;;;;;5096846;28;20224;-87
2021/11/11 00:37:35;;;;;;;417.83;122.63;;;;;;;;;;5096931;28;20220;-87
2021/11/11 00:40:02;;;;;;;235.85;111.50;;;;;;;;;;5096399;28;20190;-87
2021/11/11 00:42:31;;;;;;;269.27;114.40;;;;;;;;;;5079014;28;20254;-89
2021/11/11 00:44:59;;;;;;;221.52;109.97;;;;;;;;;;5079138;28;20204;-88
2021/11/11 00:47:26;;;;;;;427.20;123.55;;;;;;;;;;5096595;28;20641;-88
2021/11/11 00:49:54;;;;;;;174.15;100.93;;;;;;;;;;5096578;28;20626;-88
2021/11/11 00:52:21;;;;;;;326.90;122.55;;;;;;;;;;5096822;28;20201;-89
2021/11/11 00:54:49;;;;;;;418.13;126.07;;;;;;;;;;5078580;28;20655;-89
2021/11/11 00:57:16;;;;;;;386.60;122.22;;;;;;;;;;5096581;28;20633;-89
2021/11/11 00:59:45;;;;;;;297.98;122.68;;;;;;;;;;5096636;28;20219;-87
2021/11/11 01:02:12;;;;;;;167.77;96.90;;;;;;;;;;5096713;28;20887;-88
2021/11/11 01:04:40;;;;;;;271.83;120.00;;;;;;;;;;5096526;28;20208;-88
2021/11/11 01:07:08;;;;;;;411.23;119.68;;;;;;;;;;5096491;28;20642;-88
2021/11/11 01:09:37;;;;;;;255.15;118.75;;;;;;;;;;5096230;28;20582;-89
2021/11/11 01:12:05;;;;;;;202.70;111.20;;;;;;;;;;5096271;28;20195;-88
2021/11/11 01:14:32;;;;;;;195.52;106.95;;;;;;;;;;5096184;28;20647;-88
2021/11/11 01:17:01;;;;;;;215.73;112.22;;;;;;;;;;5096038;28;20213;-88
2021/11/11 01:19:29;;;;;;;421.92;127.32;;;;;;;;;;5095930;28;20189;-89
2021/11/11 01:21:56;;;;;;;421.42;126.03;;;;;;;;;;5096197;28;20188;-89
2021/11/11 01:24:23;;;;;;;338.42;125.78;;;;;;;;;;5095999;28;20193;-89
2021/11/11 01:26:51;;;;;;;247.10;113.65;;;;;;;;;;5095993;28;20197;-89
2021/11/11 01:29:18;;;;;;;428.10;122.88;;;;;;;;;;5095972;28;20232;-88
2021/11/11 01:31:45;;;;;;;224.80;112.10;;;;;;;;;;5078064;28;20201;-89
2021/11/11 01:34:14;;;;;;;217.32;107.88;;;;;;;;;;5096019;28;20196;-88
2021/11/11 01:36:42;;;;;;;430.20;128.30;;;;;;;;;;5095951;28;20226;-89
2021/11/11 01:39:09;;;;;;;359.23;130.40;;;;;;;;;;5096948;28;20205;-89
2021/11/11 01:41:37;;;;;;;425.05;132.30;;;;;;;;;;5099598;28;20192;-89
2021/11/11 01:44:04;;;;;;;425.38;130.63;;;;;;;;;;5096191;28;20197;-89
2021/11/11 01:46:32;;;;;;;427.90;129.07;;;;;;;;;;5099288;28;20205;-89
2021/11/11 01:48:59;;;;;;;401.45;128.50;;;;;;;;;;5097546;28;20193;-88
2021/11/11 01:51:30;;;;;;;433.35;131.23;;;;;;;;;;5095521;28;20614;-88
2021/11/11 01:53:58;;;;;;;243.30;117.50;;;;;;;;;;5095822;28;20246;-89
2021/11/11 01:56:26;;;;;;;263.15;118.00;;;;;;;;;;5077910;28;20213;-89
2021/11/11 01:58:53;;;;;;;400.17;125.53;;;;;;;;;;5077407;28;20202;-88
2021/11/11 02:01:21;;;;;;;435.52;134.07;;;;;;;;;;5095485;28;20189;-89
2021/11/11 02:03:48;;;;;;;364.88;130.25;;;;;;;;;;5095330;28;20205;-89
2021/11/11 02:06:16;;;;;;;290.63;123.70;;;;;;;;;;5094958;28;20217;-89
2021/11/11 02:08:45;;;;;;;231.95;116.30;;;;;;;;;;5095452;28;20190;-89
2021/11/11 02:11:12;;;;;;;193.60;108.78;;;;;;;;;;5095212;28;20200;-88
2021/11/11 02:13:40;;;;;;;231.32;113.80;;;;;;;;;;5076736;28;20204;-89
2021/11/11 02:16:08;;;;;;;187.45;107.25;;;;;;;;;;5094511;28;20344;-88
2021/11/11 02:18:35;;;;;;;174.60;105.93;;;;;;;;;;5095266;28;20611;-88
2021/11/11 02:21:04;;;;;;;412.98;132.98;;;;;;;;;;5095022;28;20205;-88
2021/11/11 02:23:32;;;;;;;415.20;129.52;;;;;;;;;;5076352;28;20205;-89
2021/11/11 02:25:59;;;;;;;407.35;125.38;;;;;;;;;;5076521;28;20204;-89
2021/11/11 02:28:27;;;;;;;417.92;127.72;;;;;;;;;;5094838;28;20586;-88
2021/11/11 02:30:55;;;;;;;416.02;125.10;;;;;;;;;;5094833;28;20217;-88
2021/11/11 02:33:24;;;;;;;407.63;127.53;;;;;;;;;;5094487;28;20189;-88
2021/11/11 02:35:52;;;;;;;426.63;133.77;;;;;;;;;;5094601;28;20193;-88
2021/11/11 02:38:22;;;;;;;425.17;131.93;;;;;;;;;;5076481;28;20201;-88
2021/11/11 02:40:49;;;;;;;431.10;129.95;;;;;;;;;;5095039;28;20205;-89
2021/11/11 02:43:17;;;;;;;422.65;137.10;;;;;;;;;;5094486;28;20208;-89
2021/11/11 02:45:45;;;;;;;427.52;135.35;;;;;;;;;;5094440;28;20201;-88
2021/11/11 02:48:14;;;;;;;422.35;130.00;;;;;;;;;;5094333;28;20244;-88
2021/11/11 02:50:42;;;;;;;429.98;138.70;;;;;;;;;;5094409;28;20192;-88
2021/11/11 02:53:10;;;;;;;437.55;133.02;;;;;;;;;;5094102;28;20189;-88
2021/11/11 02:55:39;;;;;;;409.55;136.35;;;;;;;;;;5094401;28;20206;-88
2021/11/11 02:58:07;;;;;;;236.45;111.47;;;;;;;;;;5094370;28;20226;-88
2021/11/11 03:00:35;;;;;;;102.63;91.85;;;;;;;;;;5094065;28;20189;-88
2021/11/11 03:03:03;;;;;;;33.78;30.60;;;;;;;;;;5094686;28;20189;-88
2021/11/11 03:05:31;;;;;;;36.03;32.15;;;;;;;;;;5094276;28;20668;-88
2021/11/11 03:07:58;;;;;;;34.10;31.00;;;;;;;;;;5094257;28;20269;-89
2021/11/11 03:10:28;;;;;;;38.05;34.80;;;;;;;;;;5093878;28;20193;-88
2021/11/11 03:12:57;;;;;;;34.70;31.77;;;;;;;;;;5094161;28;20240;-88
2021/11/11 03:15:25;;;;;;;92.57;64.63;;;;;;;;;;5093972;28;20730;-88
2021/11/11 03:17:53;;;;;;;263.77;119.68;;;;;;;;;;5094032;28;20248;-89
2021/11/11 03:20:21;;;;;;;221.93;120.30;;;;;;;;;;5094431;28;20192;-89
2021/11/11 03:22:49;;;;;;;161.02;94.32;;;;;;;;;;5076589;28;20250;-88
2021/11/11 03:25:18;;;;;;;35.30;32.40;;;;;;;;;;5094082;28;20193;-88
2021/11/11 03:27:45;;;;;;;199.88;118.45;;;;;;;;;;5094183;28;20200;-88
2021/11/11 03:30:16;;;;;;;238.52;125.63;;;;;;;;;;5094035;28;20228;-88
2021/11/11 03:32:44;;;;;;;232.43;123.97;;;;;;;;;;5094065;28;20264;-88
2021/11/11 03:35:12;;;;;;;243.02;122.80;;;;;;;;;;5094030;28;20193;-89
2021/11/11 03:37:40;;;;;;;259.13;124.45;;;;;;;;;;5097446;28;20223;-88
2021/11/11 03:40:09;;;;;;;290.30;131.55;;;;;;;;;;5097847;28;20204;-88
2021/11/11 03:42:36;;;;;;;304.05;125.65;;;;;;;;;;5098063;28;20238;-89
2021/11/11 03:45:04;;;;;;;362.27;135.40;;;;;;;;;;5098430;28;20189;-88
2021/11/11 03:47:33;;;;;;;333.13;130.32;;;;;;;;;;5098034;28;20696;-89
2021/11/11 03:50:01;;;;;;;311.85;126.40;;;;;;;;;;5097974;28;20190;-89
2021/11/11 03:52:28;;;;;;;342.80;132.57;;;;;;;;;;5097988;28;20262;-87
2021/11/11 03:54:55;;;;;;;370.40;133.23;;;;;;;;;;5098055;28;20603;-89
2021/11/11 03:57:23;;;;;;;386.75;137.85;;;;;;;;;;5097287;28;20232;-88
2021/11/11 03:59:50;;;;;;;387.55;135.20;;;;;;;;;;5097909;28;20194;-89
2021/11/11 04:02:23;;;;;;;401.92;137.98;;;;;;;;;;5097680;28;20612;-88
2021/11/11 04:04:53;;;;;;;401.85;135.45;;;;;;;;;;5097871;28;20201;-88
2021/11/11 04:07:20;;;;;;;424.45;135.80;;;;;;;;;;5097694;28;20189;-88
2021/11/11 04:09:47;;;;;;;399.77;134.40;;;;;;;;;;5097770;28;20200;-88
2021/11/11 04:12:15;;;;;;;378.92;134.57;;;;;;;;;;5097408;28;20193;-88
2021/11/11 04:14:42;;;;;;;399.38;134.07;;;;;;;;;;5100452;28;20249;-88
2021/11/11 04:17:10;;;;;;;341.23;132.98;;;;;;;;;;5098370;28;20287;-88
2021/11/11 04:19:37;;;;;;;363.27;132.50;;;;;;;;;;5099257;28;20544;-87
2021/11/11 04:22:07;;;;;;;370.95;132.90;;;;;;;;;;5101540;28;20264;-88
2021/11/11 04:24:36;;;;;;;377.58;141.82;;;;;;;;;;5097176;28;20190;-87
2021/11/11 04:27:06;;;;;;;449.55;170.13;;;;;;;;;;5097299;28;20200;-87
2021/11/11 04:29:37;;;;;;;33.22;30.48;;;;;;;;;;5097098;28;20216;-88
2021/11/11 04:32:07;;;;;;;36.03;33.13;;;;;;;;;;5097465;28;20275;-91
2021/11/11 04:34:36;;;;;;;62.22;57.88;;;;;;;;;;5097281;28;20186;-88
2021/11/11 04:37:23;;;;;;;177.82;104.50;;;;;;;;;;5096929;28;20233;-88
2021/11/11 04:48:23;;;;;;;272.48;118.50;;;;;;;;;;5093572;28;20193;-88
2021/11/11 04:51:10;;;;;;;53.85;49.85;;;;;;;;;;5096775;28;20211;-87
2021/11/11 05:02:05;;;;;;;80.53;73.60;;;;;;;;;;5096934;28;20224;-87
2021/11/11 05:04:32;;;;;;;57.45;53.28;;;;;;;;;;5096269;28;20284;-88
2021/11/11 05:06:59;;;;;;;95.60;86.55;;;;;;;;;;5078358;28;20205;-88
2021/11/11 05:09:27;;;;;;;57.90;53.13;;;;;;;;;;5096726;28;20215;-88
2021/11/11 05:11:56;;;;;;;92.13;83.65;;;;;;;;;;5096145;28;20190;-87
2021/11/11 05:14:23;;;;;;;88.57;81.07;;;;;;;;;;5096094;28;20242;-88
2021/11/11 05:16:50;;;;;;;88.63;81.05;;;;;;;;;;5096159;28;20212;-88
2021/11/11 05:19:18;;;;;;;91.88;84.30;;;;;;;;;;5096206;28;20191;-88
2021/11/11 05:21:45;;;;;;;73.93;68.10;;;;;;;;;;5096273;28;20198;-87
2021/11/11 05:24:12;;;;;;;78.25;72.40;;;;;;;;;;5096167;28;20213;-88
2021/11/11 05:26:40;;;;;;;82.10;76.13;;;;;;;;;;5095997;28;20224;-88
2021/11/11 05:29:09;;;;;;;64.78;59.95;;;;;;;;;;5095877;28;20256;-88
2021/11/11 05:31:36;;;;;;;75.70;70.30;;;;;;;;;;5095791;28;20200;-87
2021/11/11 05:34:05;;;;;;;247.40;114.68;;;;;;;;;;5077904;28;20204;-88
2021/11/11 05:36:32;;;;;;;364.95;131.15;;;;;;;;;;5095725;28;20185;-87
2021/11/11 05:38:59;;;;;;;42.33;38.47;;;;;;;;;;5077874;28;20573;-87
2021/11/11 05:41:27;;;;;;;35.13;32.20;;;;;;;;;;5095717;28;20205;-88
2021/11/11 05:43:54;;;;;;;35.10;31.70;;;;;;;;;;5095638;28;20189;-87
2021/11/11 05:46:23;;;;;;;34.72;31.83;;;;;;;;;;5095627;28;20201;-88
2021/11/11 05:48:50;;;;;;;35.45;31.92;;;;;;;;;;5096179;28;20222;-88
2021/11/11 05:51:18;;;;;;;36.97;33.67;;;;;;;;;;5077534;28;20262;-88
2021/11/11 05:53:45;;;;;;;40.22;36.58;;;;;;;;;;5077915;28;20630;-88
2021/11/11 05:56:12;;;;;;;35.92;32.45;;;;;;;;;;5095284;28;20265;-87
2021/11/11 05:58:39;;;;;;;37.72;33.85;;;;;;;;;;5094589;28;20212;-88
2021/11/11 06:01:07;;;;;;;36.78;33.28;;;;;;;;;;5095271;28;20197;-88
2021/11/11 06:03:36;;;;;;;35.72;32.63;;;;;;;;;;5095243;28;20236;-87
2021/11/11 06:06:03;;;;;;;35.50;32.28;;;;;;;;;;5094955;28;20224;-87
2021/11/11 06:08:31;;;;;;;36.35;33.25;;;;;;;;;;5095390;28;20190;-87
2021/11/11 06:10:58;;;;;;;36.50;33.10;;;;;;;;;;5095478;28;20224;-87
2021/11/11 06:13:27;;;;;;;34.30;31.42;;;;;;;;;;5095085;28;20219;-87
2021/11/11 06:15:54;;;;;;;36.40;33.15;;;;;;;;;;5095025;28;20240;-87
2021/11/11 06:18:22;;;;;;;34.50;31.70;;;;;;;;;;5094735;28;20239;-87
2021/11/11 06:20:57;;;;;;;37.75;34.30;;;;;;;;;;5095076;28;20537;-87
2021/11/11 06:23:25;;;;;;;35.20;32.15;;;;;;;;;;5094749;28;20556;-87
2021/11/11 06:25:52;;;;;;;37.17;34.00;;;;;;;;;;5095004;28;20197;-87
2021/11/11 06:28:20;;;;;;;36.90;33.58;;;;;;;;;;5094961;28;20196;-86
2021/11/11 06:30:48;;;;;;;39.70;35.85;;;;;;;;;;5094971;28;20712;-87
2021/11/11 06:33:15;;;;;;;36.08;32.97;;;;;;;;;;5094996;28;20548;-87
2021/11/11 06:35:43;;;;;;;36.63;33.20;;;;;;;;;;5094911;28;20193;-85
2021/11/11 06:38:11;;;;;;;36.75;33.55;;;;;;;;;;5094384;28;20220;-87
2021/11/11 06:40:39;;;;;;;36.15;33.03;;;;;;;;;;5094422;28;20201;-87
2021/11/11 06:43:06;;;;;;;35.17;32.00;;;;;;;;;;5094754;28;20184;-88
2021/11/11 06:45:36;;;;;;;36.03;32.97;;;;;;;;;;5076787;28;20204;-87
2021/11/11 06:48:04;;;;;;;37.22;33.75;;;;;;;;;;5094689;28;20195;-88
2021/11/11 06:50:31;;;;;;;35.70;32.60;;;;;;;;;;5094864;28;20193;-87
2021/11/11 06:52:58;;;;;;;36.83;33.83;;;;;;;;;;5094830;28;20193;-86
2021/11/11 06:55:27;;;;;;;37.30;34.20;;;;;;;;;;5094525;28;20204;-88
2021/11/11 06:57:55;;;;;;;36.20;32.97;;;;;;;;;;5094049;28;20208;-88
2021/11/11 07:00:22;;;;;;;36.83;33.30;;;;;;;;;;5094219;28;20196;-88
2021/11/11 07:02:50;;;;;;;39.00;35.50;;;;;;;;;;5094399;28;20185;-88
2021/11/11 07:05:17;;;;;;;34.35;31.45;;;;;;;;;;5094713;28;20215;-88
2021/11/11 07:07:44;;;;;;;36.97;33.95;;;;;;;;;;5094339;28;20204;-88
2021/11/11 07:10:12;;;;;;;37.45;33.63;;;;;;;;;;5094092;28;20190;-88
2021/11/11 07:12:41;;;;;;;36.13;32.80;;;;;;;;;;5094390;28;20193;-88
2021/11/11 07:15:09;;;;;;;39.30;35.80;;;;;;;;;;5094025;28;20236;-89
2021/11/11 07:17:37;;;;;;;37.65;34.00;;;;;;;;;;5094384;28;20212;-89
2021/11/11 07:20:06;;;;;;;36.05;32.67;;;;;;;;;;5094382;28;20201;-88
2021/11/11 07:22:33;;;;;;;37.45;34.05;;;;;;;;;;5094058;28;20223;-87
2021/11/11 07:25:01;;;;;;;34.55;31.60;;;;;;;;;;5093996;28;20657;-88
2021/11/11 07:27:30;;;;;;;36.55;33.13;;;;;;;;;;5094092;28;20562;-89
2021/11/11 07:29:58;;;;;;;35.78;32.72;;;;;;;;;;5094354;28;20243;-89
2021/11/11 07:32:26;;;;;;;35.70;32.60;;;;;;;;;;5075858;28;20204;-88
2021/11/11 07:34:53;;;;;;;35.78;32.70;;;;;;;;;;5093712;28;20195;-86
2021/11/11 07:37:20;;;;;;;37.42;34.13;;;;;;;;;;5093637;28;20254;-88
2021/11/11 07:39:50;;;;;;;36.15;32.75;;;;;;;;;;5094369;28;20216;-89
2021/11/11 07:42:20;;;;;;;37.17;33.88;;;;;;;;;;5094191;28;20243;-89
2021/11/11 07:44:47;;;;;;;37.85;34.33;;;;;;;;;;5094666;28;20196;-88
2021/11/11 07:47:20;;;;;;;35.88;32.63;;;;;;;;;;5093677;28;20652;-87
2021/11/11 07:49:48;;;;;;;38.08;34.13;;;;;;;;;;5093587;28;20232;-86
2021/11/11 07:52:15;;;;;;;36.40;33.17;;;;;;;;;;5093704;28;20604;-86
2021/11/11 07:54:42;;;;;;;36.80;33.50;;;;;;;;;;5093727;28;20193;-86
2021/11/11 07:57:10;;;;;;;36.60;33.20;;;;;;;;;;5093888;28;20198;-86
2021/11/11 07:59:39;;;;;;;36.17;33.10;;;;;;;;;;5093436;28;20678;-86
2021/11/11 08:02:07;;;;;;;37.97;34.58;;;;;;;;;;5093563;28;20239;-87
2021/11/11 08:04:36;;;;;;;37.53;33.78;;;;;;;;;;5093775;28;20224;-88
2021/11/11 08:07:03;;;;;;;36.70;33.03;;;;;;;;;;5093876;28;20201;-87
2021/11/11 08:09:30;;;;;;;38.35;34.95;;;;;;;;;;5093892;28;20201;-87
2021/11/11 08:11:58;;;;;;;40.33;36.35;;;;;;;;;;5093653;28;20200;-88
2021/11/11 08:14:26;;;;;;;39.85;35.78;;;;;;;;;;5093596;28;20236;-88
2021/11/11 08:16:53;;;;;;;38.42;35.08;;;;;;;;;;5094246;28;20231;-88
2021/11/11 08:19:22;;;;;;;39.83;36.00;;;;;;;;;;5094903;28;20567;-85
2021/11/11 08:21:51;;;;;;;40.72;36.67;;;;;;;;;;5078095;28;20250;-87
2021/11/11 08:24:19;;;;;;;40.80;34.40;;;;;;;;;;5098037;28;20600;-89
2021/11/11 08:26:46;;;;;;;39.10;35.30;;;;;;;;;;5081793;28;20190;-89
2021/11/11 08:29:13;;;;;;;48.05;36.95;;;;;;;;;;5099138;28;20226;-88
2021/11/11 08:31:40;;;;;;;39.78;36.00;;;;;;;;;;5097390;28;20269;-89
2021/11/11 08:34:08;;;;;;;41.72;36.95;;;;;;;;;;5098102;28;20609;-86
2021/11/11 08:36:36;;;;;;;40.38;36.47;;;;;;;;;;5098174;28;20197;-88
2021/11/11 08:39:05;;;;;;;40.55;36.72;;;;;;;;;;5097605;28;20232;-88
2021/11/11 08:41:33;;;;;;;40.70;36.60;;;;;;;;;;5096963;28;20189;-88
2021/11/11 08:44:01;;;;;;;39.78;36.03;;;;;;;;;;5096921;28;20214;-88
2021/11/11 08:46:29;;;;;;;40.65;36.45;;;;;;;;;;5096948;28;20292;-87
2021/11/11 08:48:56;;;;;;;41.88;36.65;;;;;;;;;;5096877;28;20655;-85
2021/11/11 08:51:23;;;;;;;39.50;35.65;;;;;;;;;;5096800;28;20525;-87
2021/11/11 08:53:53;;;;;;;38.58;34.53;;;;;;;;;;5097274;28;20211;-87
2021/11/11 08:56:22;;;;;;;38.95;35.03;;;;;;;;;;5097433;28;20216;-86
2021/11/11 08:58:49;;;;;;;37.58;33.78;;;;;;;;;;5100538;28;20358;-86
2021/11/11 09:01:16;;;;;;;40.65;35.95;;;;;;;;;;5096913;28;20193;-84
2021/11/11 09:03:44;;;;;;;38.08;34.42;;;;;;;;;;5096353;28;20201;-86
2021/11/11 09:06:12;;;;;;;38.38;34.50;;;;;;;;;;5095949;28;20674;-86
2021/11/11 09:08:39;;;;;;;39.55;35.67;;;;;;;;;;5096471;28;20194;-88
2021/11/11 09:11:07;;;;;;;42.30;33.90;;;;;;;;;;5096676;28;20194;-87
2021/11/11 09:13:36;;;;;;;39.38;35.72;;;;;;;;;;5096362;28;20439;-87
2021/11/11 09:16:03;;;;;;;37.78;33.90;;;;;;;;;;5096009;28;20232;-87
2021/11/11 09:18:30;;;;;;;38.60;33.28;;;;;;;;;;5096195;28;20682;-87
2021/11/11 09:20:58;;;;;;;37.17;33.50;;;;;;;;;;5095965;28;20215;-87
2021/11/11 09:23:25;;;;;;;40.97;37.20;;;;;;;;;;5096230;28;20535;-87
2021/11/11 09:25:53;;;;;;;54.65;50.45;;;;;;;;;;5096164;28;20185;-87
2021/11/11 09:28:20;;;;;;;75.90;69.45;;;;;;;;;;5095418;28;20282;-87
2021/11/11 09:30:50;;;;;;;105.95;94.63;;;;;;;;;;5077685;28;20225;-87
2021/11/11 09:33:17;;;;;;;119.85;103.05;;;;;;;;;;5095801;28;20257;-87
2021/11/11 09:35:45;;;;;;;135.13;107.15;;;;;;;;;;5061216;28;20254;-87
2021/11/11 09:38:12;;;;;;;129.85;107.18;;;;;;;;;;5078437;28;20266;-87
2021/11/11 09:40:40;;;;;;;133.02;105.07;;;;;;;;;;5095954;28;20288;-87
2021/11/11 09:43:08;;;;;;;173.43;114.50;;;;;;;;;;5095429;28;20612;-86
2021/11/11 09:45:35;;;;;;;171.05;116.30;;;;;;;;;;5095400;28;20228;-87
2021/11/11 09:48:04;;;;;;;221.15;119.47;;;;;;;;;;5095606;28;20217;-87
2021/11/11 09:50:33;;;;;;;211.02;120.00;;;;;;;;;;5095565;28;20201;-88
2021/11/11 09:53:05;;;;;;;267.63;127.80;;;;;;;;;;5095497;28;20648;-87
2021/11/11 09:58:38;;;;;;;271.15;127.22;;;;;;;;;;5095268;28;20196;-87
2021/11/11 10:01:07;;;;;;;251.27;120.68;;;;;;;;;;5080617;28;20212;-86
2021/11/11 10:03:41;;;;;;;279.27;127.93;;;;;;;;;;5095293;28;20528;-87
2021/11/11 10:06:08;;;;;;;283.27;128.27;;;;;;;;;;5095141;28;20236;-87
2021/11/11 10:08:36;;;;;;;273.27;126.40;;;;;;;;;;5095508;28;20223;-87
2021/11/11 10:11:04;;;;;;;288.42;129.35;;;;;;;;;;5095646;28;20208;-87
2021/11/11 10:13:33;;;;;;;313.85;128.02;;;;;;;;;;5077069;28;20235;-87
2021/11/11 10:16:02;;;;;;;221.18;120.07;;;;;;;;;;5094688;28;20237;-87
2021/11/11 10:18:42;;;;;;;275.73;128.40;;;;;;;;;;5094960;28;20192;-87
2021/11/11 10:21:26;;;;;;;341.33;136.27;;;;;;;;;;5095377;28;20628;-87
2021/11/11 10:23:54;;;;;;;319.92;127.60;;;;;;;;;;5083738;28;20208;-87
2021/11/11 10:26:26;;;;;;;322.33;132.95;;;;;;;;;;5095634;28;20197;-87
2021/11/11 10:28:53;;;;;;;327.17;132.55;;;;;;;;;;5094559;28;20231;-85
2021/11/11 10:31:22;;;;;;;323.05;133.50;;;;;;;;;;5094904;28;20193;-87
2021/11/11 10:34:13;;;;;;;360.33;133.32;;;;;;;;;;5094624;28;20206;-87
2021/11/11 10:36:47;;;;;;;341.02;132.80;;;;;;;;;;5079603;28;20201;-87
2021/11/11 10:39:15;;;;;;;347.05;129.43;;;;;;;;;;5094694;28;20568;-87
2021/11/11 10:41:43;;;;;;;363.48;131.40;;;;;;;;;;5095022;28;20210;-87
2021/11/11 10:44:17;;;;;;;367.92;134.27;;;;;;;;;;5093795;28;20217;-85
2021/11/11 10:46:45;;;;;;;399.55;136.82;;;;;;;;;;5093891;28;20189;-85
2021/11/11 10:49:20;;;;;;;405.52;136.27;;;;;;;;;;5095505;28;20198;-88
2021/11/11 10:51:49;;;;;;;407.80;135.48;;;;;;;;;;5108798;28;20265;-88
2021/11/11 10:54:17;;;;;;;413.85;136.48;;;;;;;;;;5115968;28;20194;-86
2021/11/11 10:56:45;;;;;;;407.85;138.43;;;;;;;;;;5115798;28;20186;-88
2021/11/11 10:59:13;;;;;;;437.83;138.15;;;;;;;;;;5097338;28;20282;-89
2021/11/11 11:01:41;;;;;;;456.35;141.07;;;;;;;;;;5097182;28;20200;-88
2021/11/11 11:04:23;;;;;;;449.08;141.43;;;;;;;;;;5114621;28;20635;-87
2021/11/11 11:06:52;;;;;;;441.25;133.65;;;;;;;;;;5113966;28;20207;-83
2021/11/11 11:09:21;;;;;;;456.75;140.05;;;;;;;;;;5095683;28;20609;-83
2021/11/11 11:11:48;;;;;;;465.98;161.15;;;;;;;;;;5113804;28;20670;-83
2021/11/11 11:14:17;;;;;;;446.38;139.27;;;;;;;;;;5095120;28;20241;-84
2021/11/11 11:16:45;;;;;;;448.98;139.68;;;;;;;;;;5113484;28;20193;-84
2021/11/11 11:19:14;;;;;;;448.65;143.75;;;;;;;;;;5113535;28;20290;-84
2021/11/11 11:21:42;;;;;;;451.13;138.85;;;;;;;;;;5113587;28;20212;-84
2021/11/11 11:24:11;;;;;;;449.00;139.32;;;;;;;;;;5113903;28;20199;-84
2021/11/11 11:26:40;;;;;;;443.13;134.48;;;;;;;;;;5113596;28;20202;-83
2021/11/11 11:29:13;;;;;;;365.10;147.68;;;;;;;;;;5113565;28;20572;-84
2021/11/11 11:31:44;;;;;;;366.15;143.73;;;;;;;;;;5113811;28;20212;-84
2021/11/11 11:34:13;;;;;;;339.15;148.82;;;;;;;;;;5113660;28;20221;-84
2021/11/11 11:36:42;;;;;;;302.98;140.85;;;;;;;;;;5113781;28;20200;-83
2021/11/11 11:39:13;;;;;;;310.73;143.13;;;;;;;;;;5113877;28;20225;-84
2021/11/11 11:41:42;;;;;;;270.02;145.93;;;;;;;;;;5113626;28;20198;-84
2021/11/11 11:44:16;;;;;;;156.52;126.15;;;;;;;;;;5113532;28;20627;-84
2021/11/11 11:46:52;;;;;;;277.77;149.23;;;;;;;;;;5113694;28;20648;-84
2021/11/11 11:49:20;;;;;;;301.50;161.60;;;;;;;;;;5113780;28;20193;-84
2021/11/11 11:51:47;;;;;;;187.90;136.25;;;;;;;;;;5113571;28;20189;-85
2021/11/11 11:54:23;;;;;;;119.53;108.73;;;;;;;;;;5113668;28;20190;-85
2021/11/11 11:56:55;;;;;;;107.20;98.30;;;;;;;;;;5114340;28;20500;-84
2021/11/11 11:59:25;;;;;;;149.23;134.07;;;;;;;;;;5117251;28;20519;-85
2021/11/11 12:02:09;;;;;;;134.77;121.67;;;;;;;;;;5099744;28;20456;-85
2021/11/11 12:05:01;;;;;;;99.23;91.93;;;;;;;;;;5099357;28;20447;-85
2021/11/11 12:10:26;;;;;;;113.67;104.43;;;;;;;;;;5085481;28;20549;-84
2021/11/11 12:15:50;;;;;;;106.70;98.63;;;;;;;;;;5103963;28;20463;-84
2021/11/11 12:38:41;;;;;;;46.70;42.30;;;;;;;;;;4918268;29;21008;-85
2021/11/11 12:41:10;;;;;;;56.97;51.97;;;;;;;;;;4937219;29;20506;-86
2021/11/11 12:43:39;;;;;;;49.93;45.40;;;;;;;;;;4937262;29;20434;-83
2021/11/11 12:46:08;;;;;;;71.10;65.20;;;;;;;;;;4937466;29;20920;-87
2021/11/11 12:48:35;;;;;;;61.20;56.67;;;;;;;;;;4937552;29;20460;-88
2021/11/11 12:51:04;;;;;;;45.67;39.13;;;;;;;;;;4937194;29;20462;-89
2021/11/11 12:53:33;;;;;;;50.87;41.23;;;;;;;;;;4937426;29;20943;-91
2021/11/11 12:56:16;;;;;;;41.70;37.80;;;;;;;;;;4921449;29;20464;-88
2021/11/11 12:58:46;;;;;;;43.43;39.10;;;;;;;;;;4971445;28;20804;-83
2021/11/11 13:01:16;;;;;;;46.33;41.40;;;;;;;;;;4975171;28;20617;-85
2021/11/11 13:03:49;;;;;;;45.30;38.40;;;;;;;;;;4975489;28;20808;-88
2021/11/11 13:06:31;;;;;;;42.93;38.80;;;;;;;;;;4986154;28;20948;-85
2021/11/11 13:08:59;;;;;;;45.57;40.60;;;;;;;;;;5013921;28;20423;-86
2021/11/11 13:11:28;;;;;;;51.63;39.90;;;;;;;;;;5026098;28;20439;-85
2021/11/11 13:14:07;;;;;;;49.00;39.27;;;;;;;;;;5096009;28;20865;-84
2021/11/11 13:16:35;;;;;;;49.53;41.07;;;;;;;;;;5095798;28;20443;-85
2021/11/11 13:19:04;;;;;;;45.27;40.47;;;;;;;;;;5077864;28;20852;-84
2021/11/11 13:21:39;;;;;;;52.20;40.37;;;;;;;;;;5077127;28;20525;-83
2021/11/11 13:24:15;;;;;;;50.30;42.27;;;;;;;;;;5077491;28;20878;-84
2021/11/11 15:18:13;;;;;;;45.47;40.60;;;;;;;;;;5080647;28;20469;-86
2021/11/11 15:44:25;;;;;;;46.07;41.53;;;;;;;;;;5093853;28;20487;-86
2021/11/11 15:57:18;;;;;;;45.90;41.30;;;;;;;;;;5098331;28;20753;-90
2021/11/11 16:02:44;;;;;;;44.83;40.20;;;;;;;;;;5097525;28;20416;-92
2021/11/11 16:22:27;;;;;;;43.23;38.67;;;;;;;;;;5079595;28;20525;-91
2021/11/11 16:25:03;;;;;;;47.87;42.03;;;;;;;;;;5078410;28;20482;-92
2021/11/11 16:27:31;;;;;;;43.07;38.87;;;;;;;;;;5080204;28;20436;-92
2021/11/11 16:30:00;;;;;;;45.70;41.00;;;;;;;;;;5078663;28;20450;-92
2021/11/11 16:32:28;;;;;;;47.47;42.30;;;;;;;;;;5077827;28;20429;-92
2021/11/11 16:34:57;;;;;;;46.73;42.33;;;;;;;;;;5077752;28;20422;-92
2021/11/11 16:37:25;;;;;;;43.87;39.57;;;;;;;;;;5082849;28;20438;-93
2021/11/11 16:39:52;;;;;;;46.80;42.53;;;;;;;;;;5078893;28;20499;-92
2021/11/11 16:42:19;;;;;;;45.30;40.70;;;;;;;;;;5079868;28;20440;-92
2021/11/11 16:44:47;;;;;;;48.70;41.60;;;;;;;;;;5080510;28;20428;-93
2021/11/11 16:47:14;;;;;;;45.30;40.63;;;;;;;;;;5080335;28;20437;-93
2021/11/11 16:49:42;;;;;;;44.60;39.90;;;;;;;;;;5080629;28;20411;-92
2021/11/11 16:52:10;;;;;;;45.30;40.80;;;;;;;;;;5080357;28;20459;-94
2021/11/11 16:54:38;;;;;;;47.27;42.40;;;;;;;;;;5065881;28;20456;-84
2021/11/11 16:57:06;;;;;;;44.83;40.47;;;;;;;;;;5080271;28;20468;-84
2021/11/11 16:59:33;;;;;;;45.07;40.40;;;;;;;;;;5085214;28;20437;-84
2021/11/11 17:02:01;;;;;;;43.73;39.77;;;;;;;;;;5084604;28;20459;-94
2021/11/11 17:04:29;;;;;;;49.47;39.37;;;;;;;;;;5099520;22;20420;-95
2021/11/11 17:06:56;;;;;;;45.20;40.60;;;;;;;;;;5064485;28;20441;-89
2021/11/11 17:09:25;;;;;;;47.37;42.60;;;;;;;;;;5066675;28;20435;-95
2021/11/11 17:11:53;;;;;;;48.03;43.10;;;;;;;;;;5070875;28;20469;-95
2021/11/11 17:14:25;;;;;;;53.07;42.10;;;;;;;;;;5057240;28;20464;-94
2021/11/11 17:16:52;;;;;;;58.97;45.67;;;;;;;;;;5057770;28;20497;-95
2021/11/11 17:19:24;;;;;;;52.33;46.73;;;;;;;;;;5058528;28;20476;-95
2021/11/11 17:21:53;;;;;;;48.33;43.37;;;;;;;;;;5057295;28;20464;-95
2021/11/11 17:24:27;;;;;;;46.80;41.73;;;;;;;;;;5059341;28;20447;-92
2021/11/11 17:27:20;;;;;;;45.13;40.63;;;;;;;;;;5058066;28;20434;-95
2021/11/11 17:29:48;;;;;;;46.23;41.90;;;;;;;;;;5038396;28;20452;-94
2021/11/11 17:32:15;;;;;;;49.10;43.90;;;;;;;;;;5059108;28;20436;-94
2021/11/11 17:34:43;;;;;;;45.57;41.23;;;;;;;;;;5057554;28;20416;-92
2021/11/11 17:37:11;;;;;;;48.33;43.30;;;;;;;;;;5056493;28;20431;-91
2021/11/11 17:39:38;;;;;;;48.77;44.10;;;;;;;;;;5056201;28;20447;-91
2021/11/11 17:42:07;;;;;;;46.93;42.63;;;;;;;;;;5039662;28;20477;-90
2021/11/11 17:44:35;;;;;;;48.03;43.20;;;;;;;;;;5057268;28;20467;-89
2021/11/11 17:47:05;;;;;;;45.67;41.53;;;;;;;;;;5056966;28;20428;-88